Time,TemperatureF,DewpointF,PressureIn,WindDirection,WindDirectionDegrees,WindSpeedMPH,WindSpeedGustMPH,Humidity,HourlyPrecipIn,Conditions,Clouds,dailyrainin,SoftwareType,DateUTC
2013-03-06 00:01:00,47.0,41.0,29.58,North,0,0.0,1.0,78,0.00,,,0.00,,2013-03-06 00:01:00,
2013-03-06 00:11:00,47.0,41.0,29.58,North,0,0.0,1.0,78,0.00,,,0.00,,2013-03-06 00:11:00,
2013-03-06 00:21:00,47.0,41.0,29.57,North,0,0.0,1.0,78,0.00,,,0.00,,2013-03-06 00:21:00,
2013-03-06 00:32:00,47.0,41.0,29.57,North,0,0.0,1.0,78,0.00,,,0.00,,2013-03-06 00:32:00,
2013-03-06 00:41:00,47.0,41.0,29.57,North,0,0.0,1.0,78,0.00,,,0.00,,2013-03-06 00:41:00,
2013-03-06 00:51:00,47.0,41.0,29.57,North,0,0.0,2.0,78,0.00,,,0.00,,2013-03-06 00:51:00,
2013-03-06 01:01:00,47.0,41.0,29.57,North,0,0.0,2.0,78,0.00,,,0.00,,2013-03-06 01:01:00,
2013-03-06 01:11:00,47.0,41.0,29.57,North,0,0.0,2.0,78,0.00,,,0.00,,2013-03-06 01:11:00,
2013-03-06 01:21:00,46.0,40.0,29.56,North,0,0.0,2.0,80,0.00,,,0.00,,2013-03-06 01:21:00,
2013-03-06 01:32:00,46.0,40.0,29.56,North,0,0.0,2.0,80,0.00,,,0.00,,2013-03-06 01:32:00,
2013-03-06 01:42:00,46.0,40.0,29.56,North,0,0.0,2.0,80,0.00,,,0.00,,2013-03-06 01:42:00,
2013-03-06 01:52:00,46.0,40.0,29.56,North,0,0.0,2.0,80,0.00,,,0.00,,2013-03-06 01:52:00,
2013-03-06 02:01:00,46.0,41.0,29.56,North,0,0.0,2.0,81,0.00,,,0.00,,2013-03-06 02:01:00,
2013-03-06 02:11:00,46.0,41.0,29.56,North,0,0.0,2.0,81,0.00,,,0.00,,2013-03-06 02:11:00,
2013-03-06 02:21:00,45.0,40.0,29.55,North,0,0.0,2.0,82,0.00,,,0.00,,2013-03-06 02:21:00,
2013-03-06 02:31:00,45.0,40.0,29.55,North,0,0.0,2.0,82,0.00,,,0.00,,2013-03-06 02:31:00,
2013-03-06 02:41:00,45.0,40.0,29.55,North,0,0.0,2.0,82,0.00,,,0.00,,2013-03-06 02:41:00,
2013-03-06 02:52:00,46.0,41.0,29.55,North,0,0.0,2.0,82,0.00,,,0.00,,2013-03-06 02:52:00,
2013-03-06 03:01:00,45.0,40.0,29.55,North,0,0.0,0.0,83,0.00,,,0.00,,2013-03-06 03:01:00,
2013-03-06 03:11:00,45.0,40.0,29.55,North,0,0.0,0.0,83,0.00,,,0.00,,2013-03-06 03:11:00,
2013-03-06 03:21:00,45.0,40.0,29.55,North,0,0.0,0.0,83,0.00,,,0.00,,2013-03-06 03:21:00,
2013-03-06 03:31:00,45.0,40.0,29.54,North,0,0.0,1.0,83,0.00,,,0.00,,2013-03-06 03:31:00,
2013-03-06 03:41:00,45.0,40.0,29.54,North,0,0.0,1.0,83,0.00,,,0.00,,2013-03-06 03:41:00,
2013-03-06 03:52:00,46.0,41.0,29.54,North,0,0.0,1.0,83,0.00,,,0.00,,2013-03-06 03:52:00,
2013-03-06 04:01:00,46.0,41.0,29.54,North,0,0.0,2.0,83,0.00,,,0.00,,2013-03-06 04:01:00,
2013-03-06 04:11:00,46.0,41.0,29.54,North,0,0.0,2.0,83,0.00,,,0.00,,2013-03-06 04:11:00,
2013-03-06 04:21:00,46.0,41.0,29.54,North,0,0.0,2.0,83,0.00,,,0.00,,2013-03-06 04:21:00,
2013-03-06 04:31:00,46.0,41.0,29.54,North,0,0.0,1.0,83,0.00,,,0.00,,2013-03-06 04:31:00,
2013-03-06 04:41:00,46.0,41.0,29.54,North,0,0.0,1.0,83,0.00,,,0.00,,2013-03-06 04:41:00,
2013-03-06 04:52:00,46.0,41.0,29.54,North,0,0.0,1.0,84,0.00,,,0.00,,2013-03-06 04:52:00,
2013-03-06 05:01:00,46.0,41.0,29.54,North,0,0.0,1.0,84,0.00,,,0.00,,2013-03-06 05:01:00,
2013-03-06 05:11:00,46.0,41.0,29.54,North,0,0.0,1.0,84,0.00,,,0.00,,2013-03-06 05:11:00,
2013-03-06 05:22:00,46.0,41.0,29.54,North,0,0.0,1.0,84,0.00,,,0.00,,2013-03-06 05:22:00,
2013-03-06 05:32:00,46.0,41.0,29.53,East,87,1.0,3.0,84,0.00,,,0.00,,2013-03-06 05:32:00,
2013-03-06 05:42:00,46.0,41.0,29.53,East,87,1.0,3.0,84,0.00,,,0.00,,2013-03-06 05:42:00,
2013-03-06 05:52:00,46.0,41.0,29.53,ENE,77,1.0,4.0,84,0.00,,,0.00,,2013-03-06 05:52:00,
2013-03-06 06:01:00,46.0,41.0,29.53,ENE,77,1.0,4.0,84,0.00,,,0.00,,2013-03-06 06:01:00,
2013-03-06 06:11:00,46.0,41.0,29.53,ENE,77,1.0,4.0,84,0.00,,,0.00,,2013-03-06 06:11:00,
2013-03-06 06:21:00,46.0,41.0,29.53,North,0,0.0,3.0,84,0.00,,,0.00,,2013-03-06 06:21:00,
2013-03-06 06:31:00,46.0,41.0,29.53,East,79,1.0,4.0,84,0.00,,,0.00,,2013-03-06 06:31:00,
2013-03-06 06:42:00,46.0,41.0,29.53,East,79,1.0,4.0,84,0.00,,,0.00,,2013-03-06 06:42:00,
2013-03-06 06:52:00,46.0,41.0,29.53,East,79,1.0,4.0,84,0.00,,,0.00,,2013-03-06 06:52:00,
2013-03-06 07:01:00,46.0,41.0,29.53,North,0,0.0,2.0,84,0.00,,,0.00,,2013-03-06 07:01:00,
2013-03-06 07:11:00,46.0,41.0,29.53,North,0,0.0,2.0,84,0.00,,,0.00,,2013-03-06 07:11:00,
2013-03-06 07:22:00,46.0,41.0,29.54,ENE,74,1.0,3.0,84,0.00,,,0.00,,2013-03-06 07:22:00,
2013-03-06 07:31:00,46.0,41.0,29.54,East,85,1.0,4.0,83,0.00,,,0.00,,2013-03-06 07:31:00,
2013-03-06 07:42:00,46.0,41.0,29.54,East,85,1.0,4.0,83,0.00,,,0.00,,2013-03-06 07:42:00,
2013-03-06 07:52:00,46.0,41.0,29.54,East,85,1.0,4.0,83,0.00,,,0.00,,2013-03-06 07:52:00,
2013-03-06 08:01:00,46.0,41.0,29.55,ENE,71,1.0,4.0,82,0.00,,,0.00,,2013-03-06 08:01:00,
2013-03-06 08:11:00,46.0,41.0,29.55,ENE,71,1.0,4.0,82,0.00,,,0.00,,2013-03-06 08:11:00,
2013-03-06 08:21:00,47.0,42.0,29.55,East,79,1.0,3.0,82,0.00,,,0.00,,2013-03-06 08:21:00,
2013-03-06 08:31:00,47.0,42.0,29.55,East,79,1.0,3.0,82,0.00,,,0.00,,2013-03-06 08:31:00,
2013-03-06 08:42:00,47.0,42.0,29.55,East,79,1.0,3.0,82,0.00,,,0.00,,2013-03-06 08:42:00,
2013-03-06 08:52:00,47.0,42.0,29.55,East,81,1.0,4.0,82,0.00,,,0.00,,2013-03-06 08:52:00,
2013-03-06 09:01:00,47.0,42.0,29.56,North,0,0.0,3.0,82,0.00,,,0.00,,2013-03-06 09:01:00,
2013-03-06 09:12:00,47.0,42.0,29.56,North,0,0.0,3.0,82,0.00,,,0.00,,2013-03-06 09:12:00,
2013-03-06 09:21:00,47.0,42.0,29.56,ENE,75,1.0,4.0,82,0.00,,,0.00,,2013-03-06 09:21:00,
2013-03-06 09:31:00,47.0,42.0,29.56,ENE,75,1.0,4.0,82,0.00,,,0.00,,2013-03-06 09:31:00,
2013-03-06 09:41:00,47.0,42.0,29.56,ENE,75,1.0,4.0,82,0.00,,,0.00,,2013-03-06 09:41:00,
2013-03-06 09:52:00,48.0,42.0,29.55,East,82,2.0,6.0,81,0.00,,,0.00,,2013-03-06 09:52:00,
2013-03-06 10:01:00,49.0,43.0,29.54,East,83,2.0,6.0,80,0.00,,,0.00,,2013-03-06 10:01:00,
2013-03-06 10:11:00,49.0,43.0,29.54,East,83,2.0,6.0,80,0.00,,,0.00,,2013-03-06 10:11:00,
2013-03-06 10:21:00,49.0,43.0,29.54,East,83,2.0,6.0,80,0.00,,,0.00,,2013-03-06 10:21:00,
2013-03-06 10:31:00,49.0,42.0,29.55,East,85,2.0,6.0,78,0.00,,,0.00,,2013-03-06 10:31:00,
2013-03-06 10:41:00,49.0,42.0,29.55,East,85,2.0,6.0,78,0.00,,,0.00,,2013-03-06 10:41:00,
2013-03-06 10:52:00,50.0,43.0,29.54,East,97,2.0,7.0,77,0.00,,,0.00,,2013-03-06 10:52:00,
2013-03-06 11:01:00,51.0,43.0,29.54,East,97,2.0,5.0,75,0.00,,,0.00,,2013-03-06 11:01:00,
2013-03-06 11:11:00,51.0,43.0,29.54,East,97,2.0,5.0,75,0.00,,,0.00,,2013-03-06 11:11:00,
2013-03-06 11:22:00,51.0,43.0,29.54,East,97,2.0,5.0,75,0.00,,,0.00,,2013-03-06 11:22:00,
2013-03-06 11:31:00,52.0,44.0,29.54,East,84,2.0,6.0,74,0.00,,,0.00,,2013-03-06 11:31:00,
2013-03-06 11:42:00,52.0,44.0,29.54,East,84,2.0,6.0,74,0.00,,,0.00,,2013-03-06 11:42:00,
2013-03-06 11:52:00,53.0,44.0,29.54,East,93,1.0,4.0,71,0.00,,,0.00,,2013-03-06 11:52:00,
2013-03-06 12:01:00,53.0,44.0,29.54,East,93,1.0,4.0,71,0.00,,,0.00,,2013-03-06 12:01:00,
2013-03-06 12:11:00,53.0,44.0,29.54,East,93,1.0,4.0,71,0.00,,,0.00,,2013-03-06 12:11:00,
2013-03-06 12:21:00,54.0,44.0,29.54,East,97,2.0,6.0,68,0.00,,,0.00,,2013-03-06 12:21:00,
2013-03-06 12:32:00,54.0,44.0,29.54,East,93,2.0,6.0,69,0.00,,,0.00,,2013-03-06 12:32:00,
2013-03-06 12:42:00,54.0,44.0,29.54,East,93,2.0,6.0,69,0.00,,,0.00,,2013-03-06 12:42:00,
2013-03-06 12:52:00,55.0,45.0,29.53,North,0,0.0,3.0,68,0.00,,,0.00,,2013-03-06 12:52:00,
2013-03-06 13:01:00,55.0,45.0,29.53,North,0,0.0,3.0,68,0.00,,,0.00,,2013-03-06 13:01:00,
2013-03-06 13:11:00,55.0,45.0,29.53,North,0,0.0,3.0,68,0.00,,,0.00,,2013-03-06 13:11:00,
2013-03-06 13:21:00,55.0,45.0,29.52,East,93,2.0,7.0,68,0.00,,,0.00,,2013-03-06 13:21:00,
2013-03-06 13:31:00,55.0,44.0,29.52,East,84,2.0,6.0,67,0.00,,,0.00,,2013-03-06 13:31:00,
2013-03-06 13:42:00,55.0,44.0,29.52,East,84,2.0,6.0,67,0.00,,,0.00,,2013-03-06 13:42:00,
2013-03-06 13:51:00,55.0,44.0,29.52,East,84,2.0,6.0,67,0.00,,,0.00,,2013-03-06 13:51:00,
2013-03-06 14:01:00,55.0,44.0,29.52,East,101,1.0,4.0,67,0.00,,,0.00,,2013-03-06 14:01:00,
2013-03-06 14:11:00,55.0,44.0,29.52,East,101,1.0,4.0,67,0.00,,,0.00,,2013-03-06 14:11:00,
2013-03-06 14:21:00,55.0,44.0,29.52,East,93,2.0,6.0,67,0.00,,,0.00,,2013-03-06 14:21:00,
2013-03-06 14:32:00,55.0,44.0,29.52,East,99,1.0,4.0,67,0.00,,,0.00,,2013-03-06 14:32:00,
2013-03-06 14:41:00,55.0,44.0,29.52,East,99,1.0,4.0,67,0.00,,,0.00,,2013-03-06 14:41:00,
2013-03-06 14:52:00,55.0,44.0,29.52,East,99,1.0,4.0,67,0.00,,,0.00,,2013-03-06 14:52:00,
2013-03-06 15:01:00,55.0,44.0,29.52,East,79,1.0,4.0,67,0.00,,,0.00,,2013-03-06 15:01:00,
2013-03-06 15:11:00,55.0,44.0,29.52,East,79,1.0,4.0,67,0.00,,,0.00,,2013-03-06 15:11:00,
2013-03-06 15:21:00,55.0,44.0,29.51,East,86,1.0,4.0,67,0.00,,,0.00,,2013-03-06 15:21:00,
2013-03-06 15:32:00,55.0,44.0,29.51,East,86,1.0,4.0,67,0.00,,,0.00,,2013-03-06 15:32:00,
2013-03-06 15:42:00,55.0,44.0,29.51,East,86,1.0,4.0,67,0.00,,,0.00,,2013-03-06 15:42:00,
2013-03-06 15:52:00,56.0,45.0,29.51,East,95,1.0,3.0,66,0.00,,,0.00,,2013-03-06 15:52:00,
2013-03-06 16:01:00,55.0,44.0,29.50,ENE,75,1.0,3.0,67,0.00,,,0.00,,2013-03-06 16:01:00,
2013-03-06 16:11:00,55.0,44.0,29.50,ENE,75,1.0,3.0,67,0.00,,,0.00,,2013-03-06 16:11:00,
2013-03-06 16:21:00,56.0,46.0,29.50,East,87,1.0,5.0,68,0.00,,,0.00,,2013-03-06 16:21:00,
2013-03-06 16:32:00,56.0,46.0,29.50,East,87,1.0,5.0,68,0.00,,,0.00,,2013-03-06 16:32:00,
2013-03-06 16:41:00,56.0,46.0,29.50,East,87,1.0,5.0,68,0.00,,,0.00,,2013-03-06 16:41:00,
2013-03-06 16:52:00,56.0,46.0,29.50,East,90,1.0,5.0,68,0.00,,,0.00,,2013-03-06 16:52:00,
2013-03-06 17:01:00,56.0,44.0,29.50,East,101,2.0,5.0,65,0.00,,,0.00,,2013-03-06 17:01:00,
2013-03-06 17:11:00,56.0,44.0,29.50,East,101,2.0,5.0,65,0.00,,,0.00,,2013-03-06 17:11:00,
2013-03-06 17:21:00,56.0,44.0,29.50,East,101,2.0,5.0,65,0.00,,,0.00,,2013-03-06 17:21:00,
2013-03-06 17:31:00,55.0,45.0,29.50,East,90,1.0,4.0,68,0.00,,,0.00,,2013-03-06 17:31:00,
2013-03-06 17:41:00,55.0,45.0,29.50,East,90,1.0,4.0,68,0.00,,,0.00,,2013-03-06 17:41:00,
2013-03-06 17:52:00,54.0,44.0,29.50,East,99,3.0,10.0,69,0.00,,,0.00,,2013-03-06 17:52:00,
2013-03-06 18:01:00,54.0,44.0,29.50,ESE,103,2.0,9.0,70,0.00,,,0.00,,2013-03-06 18:01:00,
2013-03-06 18:28:00,54.0,44.0,29.50,ESE,103,2.0,9.0,70,0.00,,,0.00,,2013-03-06 18:28:00,
2013-03-06 18:41:00,54.0,44.0,29.50,ESE,103,2.0,9.0,70,0.00,,,0.00,,2013-03-06 18:41:00,
2013-03-06 19:21:00,53.0,44.0,29.52,ESE,102,1.0,4.0,71,0.00,,,0.00,,2013-03-06 19:21:00,
2013-03-06 19:32:00,53.0,44.0,29.52,ESE,102,1.0,4.0,71,0.00,,,0.00,,2013-03-06 19:32:00,
2013-03-06 19:42:00,53.0,44.0,29.52,ESE,102,1.0,4.0,71,0.00,,,0.00,,2013-03-06 19:42:00,
2013-03-06 19:52:00,52.0,43.0,29.52,East,100,3.0,6.0,72,0.00,,,0.00,,2013-03-06 19:52:00,
2013-03-06 20:01:00,52.0,43.0,29.52,East,100,3.0,6.0,72,0.00,,,0.00,,2013-03-06 20:01:00,
2013-03-06 20:11:00,52.0,43.0,29.52,East,100,3.0,6.0,72,0.00,,,0.00,,2013-03-06 20:11:00,
2013-03-06 20:21:00,52.0,43.0,29.52,East,100,3.0,6.0,72,0.00,,,0.00,,2013-03-06 20:21:00,
2013-03-06 20:31:00,50.0,43.0,29.52,East,95,3.0,7.0,76,0.00,,,0.00,,2013-03-06 20:31:00,
2013-03-06 20:42:00,50.0,43.0,29.52,East,95,3.0,7.0,76,0.00,,,0.00,,2013-03-06 20:42:00,
2013-03-06 20:52:00,50.0,43.0,29.52,East,95,3.0,7.0,76,0.00,,,0.00,,2013-03-06 20:52:00,
2013-03-06 21:02:00,49.0,42.0,29.52,East,94,1.0,5.0,77,0.00,,,0.00,,2013-03-06 21:02:00,
2013-03-06 21:11:00,49.0,42.0,29.52,East,94,1.0,5.0,77,0.00,,,0.00,,2013-03-06 21:11:00,
2013-03-06 21:22:00,49.0,42.0,29.52,East,90,1.0,4.0,78,0.00,,,0.00,,2013-03-06 21:22:00,
2013-03-06 21:32:00,48.0,42.0,29.52,North,0,0.0,3.0,79,0.00,,,0.00,,2013-03-06 21:32:00,
2013-03-06 21:42:00,48.0,42.0,29.52,North,0,0.0,3.0,79,0.00,,,0.00,,2013-03-06 21:42:00,
2013-03-06 21:51:00,48.0,42.0,29.52,North,0,0.0,3.0,79,0.00,,,0.00,,2013-03-06 21:51:00,
2013-03-06 22:01:00,48.0,42.0,29.52,North,0,0.0,4.0,80,0.00,,,0.00,,2013-03-06 22:01:00,
2013-03-06 22:11:00,48.0,42.0,29.52,North,0,0.0,4.0,80,0.00,,,0.00,,2013-03-06 22:11:00,
2013-03-06 22:21:00,48.0,43.0,29.52,North,0,0.0,1.0,82,0.00,,,0.00,,2013-03-06 22:21:00,
2013-03-06 22:31:00,48.0,43.0,29.52,North,0,0.0,1.0,82,0.00,,,0.00,,2013-03-06 22:31:00,
2013-03-06 22:42:00,48.0,43.0,29.52,North,0,0.0,1.0,82,0.00,,,0.00,,2013-03-06 22:42:00,
2013-03-06 22:52:00,47.0,43.0,29.52,North,0,0.0,3.0,85,0.00,,,0.00,,2013-03-06 22:52:00,
2013-03-06 23:01:00,47.0,43.0,29.52,North,0,0.0,2.0,87,0.00,,,0.00,,2013-03-06 23:01:00,
2013-03-06 23:11:00,47.0,43.0,29.52,North,0,0.0,2.0,87,0.00,,,0.00,,2013-03-06 23:11:00,
2013-03-06 23:21:00,47.0,44.0,29.52,North,0,0.0,3.0,88,0.01,,,0.01,,2013-03-06 23:21:00,
2013-03-06 23:31:00,47.0,44.0,29.52,North,0,0.0,3.0,88,0.01,,,0.01,,2013-03-06 23:31:00,
2013-03-06 23:41:00,47.0,44.0,29.51,North,0,0.0,2.0,88,0.01,,,0.01,,2013-03-06 23:41:00,
2013-03-06 23:52:00,47.0,44.0,29.51,North,0,0.0,2.0,88,0.01,,,0.01,,2013-03-06 23:52:00,